createdAt,value
2018-01-28T00:01:15.975Z,71.53
2018-01-28T00:03:43.845Z,71.41
2018-01-28T00:06:11.766Z,71.34
2018-01-28T00:08:39.615Z,71.11
2018-01-28T00:11:07.466Z,71.21
2018-01-28T00:13:35.420Z,71.25
2018-01-28T00:16:04.172Z,71.50
2018-01-28T00:18:32.082Z,71.78
2018-01-28T00:21:00.259Z,71.91
2018-01-28T00:23:28.109Z,71.87
2018-01-28T00:25:55.990Z,72.07
2018-01-28T00:28:23.903Z,72.04
2018-01-28T00:30:51.766Z,72.21
2018-01-28T00:33:19.631Z,72.58
2018-01-28T00:35:47.530Z,72.46
2018-01-28T00:38:15.378Z,72.58
2018-01-28T00:40:43.252Z,72.59
2018-01-28T00:43:12.031Z,72.56
2018-01-28T00:45:39.875Z,72.71
2018-01-28T00:48:07.745Z,72.66
2018-01-28T00:50:35.678Z,73.02
2018-01-28T00:53:03.535Z,73.06
2018-01-28T00:55:31.389Z,72.96
2018-01-28T00:57:59.301Z,72.74
2018-01-28T01:00:27.169Z,72.96
2018-01-28T01:02:55.047Z,72.84
2018-01-28T01:05:22.955Z,72.90
2018-01-28T01:07:50.801Z,72.53
2018-01-28T01:10:18.674Z,72.21
2018-01-28T01:12:46.878Z,71.61
2018-01-28T01:15:14.728Z,71.54
2018-01-28T01:17:42.738Z,71.69
2018-01-28T01:20:10.655Z,71.96
2018-01-28T01:22:38.516Z,72.37
2018-01-28T01:25:06.388Z,72.49
2018-01-28T01:27:34.334Z,72.76
2018-01-28T01:30:02.226Z,72.77
2018-01-28T01:32:30.080Z,72.55
2018-01-28T01:34:57.984Z,72.59
2018-01-28T01:37:25.870Z,72.60
2018-01-28T01:39:53.758Z,72.38
2018-01-28T01:42:21.676Z,71.87
2018-01-28T01:44:49.534Z,71.92
2018-01-28T01:47:17.391Z,71.66
2018-01-28T01:49:45.329Z,71.54
2018-01-28T01:52:13.171Z,71.57
2018-01-28T01:54:41.025Z,71.72
2018-01-28T01:57:08.907Z,71.62
2018-01-28T01:59:36.869Z,71.86
2018-01-28T02:02:04.739Z,72.12
2018-01-28T02:04:32.876Z,72.47
2018-01-28T02:07:00.727Z,72.59
2018-01-28T02:09:28.576Z,72.57
2018-01-28T02:11:56.515Z,72.97
2018-01-28T02:14:24.379Z,73.05
2018-01-28T02:16:52.296Z,72.78
2018-01-28T02:19:20.326Z,72.77
2018-01-28T02:21:48.184Z,72.98
2018-01-28T02:24:16.038Z,72.77
2018-01-28T02:26:43.952Z,72.83
2018-01-28T02:29:11.806Z,72.77
2018-01-28T02:31:39.637Z,72.79
2018-01-28T02:34:07.546Z,72.86
2018-01-28T02:36:35.423Z,72.73
2018-01-28T02:39:03.340Z,72.87
2018-01-28T02:41:31.643Z,72.96
2018-01-28T02:43:59.503Z,72.93
2018-01-28T02:46:27.387Z,73.02
2018-01-28T02:48:55.290Z,72.93
2018-01-28T02:51:23.149Z,72.87
2018-01-28T02:53:51.022Z,72.67
2018-01-28T02:56:18.962Z,72.87
2018-01-28T02:58:46.811Z,72.75
2018-01-28T03:01:14.690Z,72.41
2018-01-28T03:03:42.671Z,72.24
2018-01-28T03:06:10.566Z,72.21
2018-01-28T03:08:38.438Z,72.02
2018-01-28T03:11:06.364Z,71.94
2018-01-28T03:13:34.219Z,72.07
2018-01-28T03:16:02.099Z,72.41
2018-01-28T03:18:30.275Z,72.38
2018-01-28T03:20:58.650Z,72.50
2018-01-28T03:23:27.350Z,72.49
2018-01-28T03:25:55.314Z,72.61
2018-01-28T03:28:23.858Z,73.00
2018-01-28T03:30:52.190Z,73.17
2018-01-28T03:33:20.187Z,73.59
2018-01-28T03:35:48.068Z,73.47
2018-01-28T03:38:15.990Z,73.69
2018-01-28T03:40:43.909Z,73.68
2018-01-28T03:43:11.781Z,73.48
2018-01-28T03:45:39.647Z,73.47
2018-01-28T03:48:07.591Z,73.21
2018-01-28T03:50:35.454Z,73.21
2018-01-28T03:53:03.322Z,73.08
2018-01-28T03:55:31.526Z,73.45
2018-01-28T03:57:59.396Z,73.26
2018-01-28T04:00:27.254Z,73.35
2018-01-28T04:02:55.191Z,73.56
2018-01-28T04:05:23.080Z,73.71
2018-01-28T04:07:50.956Z,73.94
2018-01-28T04:10:18.851Z,74.07
2018-01-28T04:12:46.746Z,74.32
2018-01-28T04:15:14.697Z,74.18
2018-01-28T04:17:42.635Z,74.75
2018-01-28T04:20:10.506Z,74.61
2018-01-28T04:22:38.690Z,74.79
2018-01-28T04:25:06.642Z,74.88
2018-01-28T04:27:34.523Z,74.94
2018-01-28T04:30:02.387Z,75.06
2018-01-28T04:32:30.295Z,74.72
2018-01-28T04:34:58.172Z,74.79
2018-01-28T04:37:26.049Z,74.44
2018-01-28T04:39:54.364Z,74.30
2018-01-28T04:42:22.295Z,74.41
2018-01-28T04:44:50.151Z,74.52
2018-01-28T04:47:18.084Z,74.44
2018-01-28T04:49:45.995Z,74.26
2018-01-28T04:52:13.867Z,74.61
2018-01-28T04:54:41.814Z,74.66
2018-01-28T04:57:09.706Z,74.55
2018-01-28T04:59:38.390Z,74.66
2018-01-28T05:02:07.329Z,74.41
2018-01-28T05:04:35.248Z,74.40
2018-01-28T05:07:03.168Z,74.14
2018-01-28T05:09:31.140Z,74.03
2018-01-28T05:11:59.042Z,74.19
2018-01-28T05:14:26.923Z,74.33
2018-01-28T05:16:55.039Z,74.30
2018-01-28T05:19:22.958Z,74.97
2018-01-28T05:21:50.927Z,75.40
2018-01-28T05:24:21.855Z,75.32
2018-01-28T05:26:49.779Z,75.07
2018-01-28T05:29:17.635Z,75.14
2018-01-28T05:31:45.567Z,75.35
2018-01-28T05:34:13.418Z,75.18
2018-01-28T05:36:41.282Z,75.50
2018-01-28T05:39:09.212Z,75.30
2018-01-28T05:41:37.067Z,75.50
2018-01-28T05:44:04.938Z,75.68
2018-01-28T05:46:32.882Z,75.56
2018-01-28T05:49:00.737Z,75.12
2018-01-28T05:51:28.631Z,75.08
2018-01-28T05:53:56.554Z,74.98
2018-01-28T05:56:24.425Z,75.06
2018-01-28T05:58:52.278Z,74.83
2018-01-28T06:01:20.181Z,74.62
2018-01-28T06:03:48.046Z,73.35
2018-01-28T06:06:15.904Z,71.77
2018-01-28T06:08:43.887Z,70.05
2018-01-28T06:11:11.775Z,68.60
2018-01-28T06:13:39.698Z,67.82
2018-01-28T06:16:07.587Z,66.81
2018-01-28T06:18:35.503Z,65.60
2018-01-28T06:21:03.378Z,64.57
2018-01-28T06:23:31.476Z,63.68
2018-01-28T06:25:59.459Z,61.89
2018-01-28T06:28:27.336Z,60.82
2018-01-28T06:30:55.230Z,60.06
2018-01-28T06:33:23.150Z,58.90
2018-01-28T06:35:51.024Z,57.72
2018-01-28T06:38:19.914Z,56.88
2018-01-28T06:40:47.766Z,55.38
2018-01-28T06:43:15.643Z,54.48
2018-01-28T06:45:43.574Z,55.06
2018-01-28T06:48:11.430Z,54.79
2018-01-28T06:50:39.292Z,54.44
2018-01-28T06:53:07.182Z,55.26
2018-01-28T06:55:35.032Z,56.56
2018-01-28T06:58:02.876Z,56.41
2018-01-28T07:00:31.012Z,55.91
2018-01-28T07:02:58.872Z,54.57
2018-01-28T07:05:26.743Z,54.89
2018-01-28T07:07:54.671Z,54.44
2018-01-28T07:10:22.521Z,52.79
2018-01-28T07:12:50.553Z,53.65
2018-01-28T07:15:18.494Z,53.25
2018-01-28T07:17:46.350Z,53.25
2018-01-28T07:20:14.291Z,52.96
2018-01-28T07:22:42.421Z,53.69
2018-01-28T07:25:10.267Z,52.98
2018-01-28T07:27:38.237Z,52.05
2018-01-28T07:30:06.551Z,51.58
2018-01-28T07:32:34.397Z,50.44
2018-01-28T07:35:02.601Z,51.03
2018-01-28T07:37:30.540Z,51.84
2018-01-28T07:39:58.379Z,51.91
2018-01-28T07:42:26.239Z,52.42
2018-01-28T07:44:54.366Z,52.22
2018-01-28T07:47:22.227Z,51.21
2018-01-28T07:49:50.087Z,51.18
2018-01-28T07:52:18.285Z,53.98
2018-01-28T07:54:46.191Z,52.89
2018-01-28T07:57:14.107Z,51.15
2018-01-28T07:59:42.049Z,52.20
2018-01-28T08:02:09.979Z,52.46
2018-01-28T08:04:37.894Z,52.37
2018-01-28T08:07:05.854Z,51.81
2018-01-28T08:09:33.786Z,51.80
2018-01-28T08:12:07.132Z,53.05
2018-01-28T08:14:36.928Z,53.54
2018-01-28T08:17:05.668Z,54.99
2018-01-28T08:19:34.093Z,54.80
2018-01-28T08:22:02.006Z,55.41
2018-01-28T08:24:29.923Z,55.77
2018-01-28T08:26:58.702Z,55.42
2018-01-28T08:29:28.299Z,54.66
2018-01-28T08:31:56.144Z,55.71
2018-01-28T08:34:24.091Z,54.70
2018-01-28T08:36:51.975Z,54.33
2018-01-28T08:39:20.360Z,53.29
2018-01-28T08:41:48.275Z,53.63
2018-01-28T08:44:16.998Z,52.61
2018-01-28T08:46:44.906Z,52.73
2018-01-28T08:49:12.815Z,52.92
2018-01-28T08:51:40.655Z,53.97
2018-01-28T08:54:08.570Z,54.11
2018-01-28T08:56:36.479Z,54.08
2018-01-28T08:59:04.325Z,54.41
2018-01-28T09:01:32.166Z,54.69
2018-01-28T09:04:00.053Z,53.10
2018-01-28T09:06:28.032Z,52.92
2018-01-28T09:08:55.933Z,51.64
2018-01-28T09:11:23.839Z,50.28
2018-01-28T09:13:51.725Z,50.93
2018-01-28T09:16:19.604Z,49.74
2018-01-28T09:18:47.535Z,47.75
2018-01-28T09:21:15.447Z,49.04
2018-01-28T09:23:43.315Z,48.19
2018-01-28T09:26:11.487Z,46.12
2018-01-28T09:28:39.352Z,46.63
2018-01-28T09:31:07.773Z,44.58
2018-01-28T09:33:35.755Z,44.72
2018-01-28T09:36:03.623Z,43.21
2018-01-28T09:38:31.522Z,44.59
2018-01-28T09:40:59.518Z,43.11
2018-01-28T09:43:27.383Z,41.70
2018-01-28T09:45:55.306Z,43.10
2018-01-28T09:48:23.219Z,41.60
2018-01-28T09:50:51.066Z,43.03
2018-01-28T09:53:18.934Z,42.98
2018-01-28T09:55:46.857Z,44.43
2018-01-28T09:58:14.711Z,44.67
2018-01-28T10:00:42.835Z,45.20
2018-01-28T10:03:11.731Z,44.21
2018-01-28T10:05:39.598Z,43.55
2018-01-28T10:08:07.438Z,42.80
2018-01-28T10:10:35.399Z,42.75
2018-01-28T10:13:03.726Z,42.25
2018-01-28T10:15:31.588Z,42.22
2018-01-28T10:17:59.500Z,42.95
2018-01-28T10:20:27.371Z,43.55
2018-01-28T10:22:55.252Z,42.79
2018-01-28T10:25:23.166Z,43.65
2018-01-28T10:27:51.053Z,44.07
2018-01-28T10:30:18.903Z,42.86
2018-01-28T10:32:46.908Z,44.01
2018-01-28T10:35:14.767Z,43.42
2018-01-28T10:37:42.622Z,43.03
2018-01-28T10:40:10.574Z,44.50
2018-01-28T10:42:38.479Z,43.49
2018-01-28T10:45:06.430Z,43.55
2018-01-28T10:47:34.671Z,45.30
2018-01-28T10:50:02.522Z,45.81
2018-01-28T10:52:30.405Z,44.41
2018-01-28T10:54:58.322Z,44.35
2018-01-28T10:57:26.186Z,44.93
2018-01-28T10:59:54.055Z,45.76
2018-01-28T11:02:22.866Z,45.37
2018-01-28T11:04:50.734Z,43.93
2018-01-28T11:07:18.607Z,43.15
2018-01-28T11:09:46.538Z,42.76
2018-01-28T11:12:14.403Z,41.83
2018-01-28T11:14:42.266Z,41.83
2018-01-28T11:17:10.201Z,39.36
2018-01-28T11:19:38.049Z,39.57
2018-01-28T11:22:05.971Z,38.69
2018-01-28T11:24:34.163Z,37.54
2018-01-28T11:27:02.034Z,37.99
2018-01-28T11:29:29.892Z,36.37
2018-01-28T11:31:57.815Z,35.57
2018-01-28T11:34:25.804Z,35.17
2018-01-28T11:36:53.674Z,35.23
2018-01-28T11:39:21.592Z,38.01
2018-01-28T11:41:49.434Z,35.73
2018-01-28T11:44:17.299Z,35.02
2018-01-28T11:46:45.276Z,34.78
2018-01-28T11:49:13.155Z,33.38
2018-01-28T11:51:41.033Z,32.24
2018-01-28T11:54:08.964Z,33.58
2018-01-28T11:56:36.944Z,33.78
2018-01-28T11:59:04.827Z,33.27
2018-01-28T12:01:32.999Z,33.52
2018-01-28T12:04:00.903Z,33.08
2018-01-28T12:06:28.769Z,33.13
2018-01-28T12:08:56.685Z,32.71
2018-01-28T12:11:24.580Z,31.85
2018-01-28T12:13:52.457Z,30.09
2018-01-28T12:16:20.360Z,31.69
2018-01-28T12:18:48.239Z,31.97
2018-01-28T12:21:16.101Z,29.73
2018-01-28T12:23:44.034Z,30.45
2018-01-28T12:26:15.167Z,29.61
2018-01-28T12:31:29.837Z,29.92
2018-01-28T12:33:57.922Z,30.01
2018-01-28T12:36:34.655Z,29.14
2018-01-28T12:39:20.084Z,29.86
2018-01-28T12:41:52.772Z,31.08
2018-01-28T12:47:05.363Z,31.58
2018-01-28T12:49:39.452Z,31.77
2018-01-28T12:52:21.968Z,30.73
2018-01-28T12:54:50.159Z,30.38
2018-01-28T12:57:19.044Z,30.04
2018-01-28T12:59:46.915Z,28.79
2018-01-28T13:02:15.083Z,29.05
2018-01-28T13:04:42.986Z,29.58
2018-01-28T13:07:10.916Z,29.93
2018-01-28T13:09:38.825Z,28.49
2018-01-28T13:12:06.720Z,29.26
2018-01-28T13:14:34.592Z,30.59
2018-01-28T13:17:02.549Z,30.63
2018-01-28T13:19:30.415Z,30.79
2018-01-28T13:21:58.292Z,31.79
2018-01-28T13:24:26.219Z,31.74
2018-01-28T13:26:54.149Z,31.17
2018-01-28T13:29:22.052Z,30.65
2018-01-28T13:31:50.012Z,30.90
2018-01-28T13:34:17.864Z,31.46
2018-01-28T13:36:46.752Z,31.16
2018-01-28T13:39:16.771Z,31.04
2018-01-28T13:41:44.622Z,31.03
2018-01-28T13:44:12.523Z,32.05
2018-01-28T13:46:40.454Z,31.96
2018-01-28T13:49:08.309Z,31.95
2018-01-28T13:51:36.154Z,31.91
2018-01-28T13:54:04.287Z,32.10
2018-01-28T13:56:32.245Z,31.95
2018-01-28T13:59:00.175Z,32.32
2018-01-28T14:01:28.100Z,32.69
2018-01-28T14:03:55.959Z,33.96
2018-01-28T14:06:23.803Z,33.90
2018-01-28T14:08:51.726Z,35.25
2018-01-28T14:11:19.646Z,35.88
2018-01-28T14:13:47.526Z,36.82
2018-01-28T14:16:15.443Z,38.55
2018-01-28T14:18:43.399Z,39.81
2018-01-28T14:21:11.255Z,40.58
2018-01-28T14:23:39.146Z,42.03
2018-01-28T14:26:07.017Z,43.11
2018-01-28T14:28:34.915Z,44.06
2018-01-28T14:31:03.635Z,44.87
2018-01-28T14:33:31.523Z,45.88
2018-01-28T14:35:59.394Z,46.72
2018-01-28T14:38:27.376Z,47.80
2018-01-28T14:40:55.241Z,47.73
2018-01-28T14:43:23.140Z,47.71
2018-01-28T14:45:51.096Z,47.54
2018-01-28T14:48:20.727Z,48.44
2018-01-28T14:50:49.624Z,48.68
2018-01-28T14:53:17.526Z,49.08
2018-01-28T14:55:45.390Z,49.36
2018-01-28T14:58:13.246Z,49.69
2018-01-28T15:00:41.563Z,49.49
2018-01-28T15:03:09.434Z,49.91
2018-01-28T15:05:37.270Z,50.54
2018-01-28T15:08:05.204Z,50.81
2018-01-28T15:10:33.111Z,51.01
2018-01-28T15:13:00.977Z,51.19
2018-01-28T15:15:28.904Z,51.72
2018-01-28T15:17:56.758Z,52.69
2018-01-28T15:20:24.646Z,53.29
2018-01-28T15:22:52.544Z,53.61
2018-01-28T15:25:21.334Z,54.18
2018-01-28T15:27:49.194Z,54.97
2018-01-28T15:30:17.456Z,55.64
2018-01-28T15:32:45.302Z,56.38
2018-01-28T15:35:13.151Z,56.57
2018-01-28T15:37:41.063Z,56.74
2018-01-28T15:40:09.078Z,57.47
2018-01-28T15:42:36.982Z,57.23
2018-01-28T15:45:04.986Z,57.72
2018-01-28T15:47:32.854Z,58.37
2018-01-28T15:50:00.795Z,58.93
2018-01-28T15:52:28.780Z,59.04
2018-01-28T15:54:56.667Z,59.19
2018-01-28T15:57:24.531Z,59.53
2018-01-28T15:59:52.463Z,59.49
2018-01-28T16:02:20.348Z,59.52
2018-01-28T16:04:48.249Z,59.65
2018-01-28T16:07:16.170Z,59.89
2018-01-28T16:09:44.022Z,60.58
2018-01-28T16:12:11.869Z,61.36
2018-01-28T16:14:39.786Z,61.63
2018-01-28T16:17:08.132Z,61.94
2018-01-28T16:19:35.988Z,62.29
2018-01-28T16:22:03.929Z,62.39
2018-01-28T16:24:31.770Z,62.73
2018-01-28T16:26:59.612Z,63.32
2018-01-28T16:29:27.567Z,63.26
2018-01-28T16:31:55.418Z,63.49
2018-01-28T16:34:23.270Z,63.55
2018-01-28T16:36:51.171Z,63.44
2018-01-28T16:39:19.028Z,63.10
2018-01-28T16:41:46.946Z,63.30
2018-01-28T16:44:14.930Z,63.79
2018-01-28T16:46:42.810Z,64.26
2018-01-28T16:49:11.947Z,64.56
2018-01-28T16:51:39.839Z,64.22
2018-01-28T16:54:07.694Z,64.46
2018-01-28T16:56:35.615Z,64.84
2018-01-28T16:59:03.526Z,64.66
2018-01-28T17:01:31.368Z,64.65
2018-01-28T17:03:59.252Z,64.94
2018-01-28T17:06:27.135Z,64.96
2018-01-28T17:08:54.994Z,64.36
2018-01-28T17:11:22.858Z,64.69
2018-01-28T17:13:50.871Z,64.49
2018-01-28T17:16:18.749Z,64.79
2018-01-28T17:18:46.609Z,65.04
2018-01-28T17:21:14.527Z,65.36
2018-01-28T17:23:42.557Z,65.54
2018-01-28T17:26:10.454Z,65.63
2018-01-28T17:28:38.671Z,65.79
2018-01-28T17:31:06.518Z,66.08
2018-01-28T17:33:34.378Z,66.71
2018-01-28T17:36:02.311Z,66.88
2018-01-28T17:38:30.171Z,67.00
2018-01-28T17:40:58.151Z,67.40
2018-01-28T17:43:26.167Z,67.74
2018-01-28T17:45:54.043Z,67.47
2018-01-28T17:48:21.915Z,67.74
2018-01-28T17:50:49.863Z,67.81
2018-01-28T17:53:17.706Z,68.11
2018-01-28T17:55:45.554Z,67.91
2018-01-28T17:58:13.470Z,68.07
2018-01-28T18:00:41.343Z,67.98
2018-01-28T18:03:09.199Z,67.88
2018-01-28T18:05:37.102Z,67.76
2018-01-28T18:08:04.979Z,67.71
2018-01-28T18:10:32.820Z,67.91
2018-01-28T18:13:00.718Z,67.80
2018-01-28T18:15:28.614Z,67.98
2018-01-28T18:17:56.458Z,68.08
2018-01-28T18:20:24.366Z,67.98
2018-01-28T18:22:52.227Z,68.06
2018-01-28T18:25:20.071Z,68.32
2018-01-28T18:27:47.979Z,68.25
2018-01-28T18:30:15.828Z,68.64
2018-01-28T18:32:43.679Z,68.46
2018-01-28T18:35:11.627Z,68.50
2018-01-28T18:37:39.495Z,68.41
2018-01-28T18:40:07.379Z,68.51
2018-01-28T18:42:35.315Z,68.40
2018-01-28T18:45:03.812Z,68.67
2018-01-28T18:47:31.731Z,68.90
2018-01-28T18:49:59.650Z,68.84
2018-01-28T18:52:27.513Z,68.92
2018-01-28T18:54:55.490Z,69.22
2018-01-28T18:57:23.401Z,69.32
2018-01-28T18:59:51.327Z,69.46
2018-01-28T19:02:19.183Z,69.93
2018-01-28T19:04:47.289Z,70.01
2018-01-28T19:07:15.138Z,69.83
2018-01-28T19:09:42.994Z,69.96
2018-01-28T19:12:12.251Z,69.75
2018-01-28T19:14:40.153Z,70.26
2018-01-28T19:17:08.067Z,70.54
2018-01-28T19:19:36.077Z,70.48
2018-01-28T19:22:04.682Z,69.90
2018-01-28T19:24:34.711Z,69.88
2018-01-28T19:27:03.133Z,69.62
2018-01-28T19:29:33.028Z,69.41
2018-01-28T19:32:01.811Z,69.01
2018-01-28T19:34:31.164Z,68.60
2018-01-28T19:37:00.784Z,67.99
2018-01-28T19:39:29.165Z,67.59
2018-01-28T19:41:57.090Z,68.00
2018-01-28T19:44:27.346Z,68.00
2018-01-28T19:46:56.727Z,68.03
2018-01-28T19:49:25.463Z,68.07
2018-01-28T19:51:54.704Z,67.89
2018-01-28T19:54:23.644Z,67.63
2018-01-28T19:56:51.575Z,67.78
2018-01-28T19:59:20.605Z,67.96
2018-01-28T20:01:48.790Z,68.13
2018-01-28T20:04:16.736Z,68.56
2018-01-28T20:06:45.180Z,68.95
2018-01-28T20:09:13.055Z,69.26
2018-01-28T20:11:40.969Z,69.40
2018-01-28T20:14:08.860Z,69.41
2018-01-28T20:16:36.734Z,69.63
2018-01-28T20:19:04.711Z,69.86
2018-01-28T20:21:32.591Z,69.98
2018-01-28T20:24:00.450Z,69.92
2018-01-28T20:26:28.368Z,70.18
2018-01-28T20:28:56.267Z,70.41
2018-01-28T20:31:24.123Z,70.15
2018-01-28T20:33:52.905Z,70.24
2018-01-28T20:36:20.794Z,70.52
2018-01-28T20:38:49.678Z,70.33
2018-01-28T20:41:17.614Z,70.66
2018-01-28T20:43:45.464Z,70.90
2018-01-28T20:46:13.444Z,70.94
2018-01-28T20:48:41.510Z,71.26
2018-01-28T20:51:09.347Z,71.24
2018-01-28T20:53:37.211Z,71.08
2018-01-28T20:56:05.147Z,70.86
2018-01-28T20:58:33.063Z,71.15
2018-01-28T21:01:00.963Z,71.36
2018-01-28T21:03:28.871Z,71.08
2018-01-28T21:05:56.730Z,71.41
2018-01-28T21:08:24.582Z,71.66
2018-01-28T21:10:52.566Z,71.72
2018-01-28T21:13:20.467Z,72.14
2018-01-28T21:15:48.319Z,71.90
2018-01-28T21:18:16.214Z,71.77
2018-01-28T21:20:44.168Z,71.34
2018-01-28T21:23:12.041Z,71.53
2018-01-28T21:25:39.954Z,71.70
2018-01-28T21:28:07.797Z,72.04
2018-01-28T21:30:35.656Z,71.54
2018-01-28T21:33:05.598Z,71.71
2018-01-28T21:35:33.453Z,71.73
2018-01-28T21:38:01.304Z,71.52
2018-01-28T21:40:29.417Z,71.51
2018-01-28T21:42:57.263Z,71.76
2018-01-28T21:45:25.123Z,71.60
2018-01-28T21:47:53.066Z,71.51
2018-01-28T21:50:21.051Z,71.23
2018-01-28T21:52:49.203Z,71.78
2018-01-28T21:55:17.139Z,71.63
2018-01-28T21:57:44.996Z,71.93
2018-01-28T22:00:12.863Z,72.03
2018-01-28T22:02:40.769Z,71.76
2018-01-28T22:05:08.635Z,71.35
2018-01-28T22:07:37.180Z,71.03
2018-01-28T22:10:05.365Z,70.60
2018-01-28T22:12:33.211Z,70.86
2018-01-28T22:15:01.061Z,70.73
2018-01-28T22:17:29.024Z,71.05
2018-01-28T22:19:56.907Z,70.74
2018-01-28T22:22:24.753Z,70.47
2018-01-28T22:24:52.678Z,70.54
2018-01-28T22:27:20.551Z,70.55
2018-01-28T22:29:48.414Z,70.35
2018-01-28T22:32:16.352Z,70.61
2018-01-28T22:34:44.231Z,70.55
2018-01-28T22:37:12.085Z,70.57
2018-01-28T22:39:39.995Z,70.31
2018-01-28T22:42:07.866Z,69.65
2018-01-28T22:44:35.730Z,69.80
2018-01-28T22:47:03.634Z,69.82
2018-01-28T22:49:31.479Z,69.45
2018-01-28T22:51:59.390Z,69.16
2018-01-28T22:54:27.328Z,69.34
2018-01-28T22:56:55.198Z,69.46
2018-01-28T22:59:23.038Z,68.96
2018-01-28T23:01:51.364Z,68.65
2018-01-28T23:04:19.206Z,68.84
2018-01-28T23:06:47.056Z,68.98
2018-01-28T23:09:14.960Z,68.61
2018-01-28T23:11:42.821Z,68.72
2018-01-28T23:14:10.671Z,68.76
2018-01-28T23:16:38.619Z,69.03
2018-01-28T23:19:06.454Z,69.30
2018-01-28T23:21:34.308Z,69.80
2018-01-28T23:24:02.230Z,70.42
2018-01-28T23:26:30.100Z,70.42
2018-01-28T23:28:57.950Z,70.12
2018-01-28T23:31:25.892Z,70.39
2018-01-28T23:33:53.744Z,70.12
2018-01-28T23:36:21.591Z,70.26
2018-01-28T23:38:49.704Z,70.16
2018-01-28T23:41:17.547Z,70.54
2018-01-28T23:43:45.397Z,70.77
2018-01-28T23:46:13.873Z,70.82
2018-01-28T23:48:41.724Z,70.91
2018-01-28T23:51:10.311Z,70.52
2018-01-28T23:53:38.378Z,70.91
2018-01-28T23:56:06.237Z,70.78
2018-01-28T23:58:34.111Z,70.66
